Time;durP1;ratioP1;P1;durP2;ratioP2;P2;SDS_P1;SDS_P2;PMS_P1;PMS_P2;Temp;Humidity;BMP_temperature;BMP_pressure;BME280_temperature;BME280_humidity;BME280_pressure;Samples;Min_cycle;Max_cycle;Signal;HPM_P1;HPM_P2
2022/02/05 00:00:24;;;;;;;0.30;0.20;;;4.20;99.90;;;;;;5137278;27;20438;-79
2022/02/05 00:02:57;;;;;;;0.30;0.30;;;4.10;99.90;;;;;;5136909;27;20940;-78
2022/02/05 00:05:32;;;;;;;0.30;0.30;;;4.00;99.90;;;;;;5137107;27;20446;-78
2022/02/05 00:08:14;;;;;;;0.30;0.30;;;4.00;99.90;;;;;;5136581;27;20465;-78
2022/02/05 00:13:46;;;;;;;0.30;0.20;;;3.90;99.90;;;;;;5118963;27;20425;-78
2022/02/05 00:38:21;;;;;;;0.30;0.20;;;3.10;99.90;;;;;;5113306;27;20430;-78
2022/02/05 00:40:54;;;;;;;0.50;0.33;;;3.00;99.90;;;;;;5136530;27;20430;-78
2022/02/05 00:43:21;;;;;;;0.30;0.30;;;3.00;99.90;;;;;;5136097;27;20969;-78
2022/02/05 00:45:52;;;;;;;0.30;0.20;;;2.80;99.90;;;;;;5136009;27;20831;-78
2022/02/05 00:48:19;;;;;;;0.30;0.20;;;2.80;99.90;;;;;;5136261;27;20462;-78
2022/02/05 00:50:52;;;;;;;0.30;0.20;;;2.70;99.90;;;;;;5136241;27;20445;-78
2022/02/05 00:53:28;;;;;;;0.30;0.30;;;2.60;99.90;;;;;;5136256;27;20430;-78
2022/02/05 00:56:02;;;;;;;0.30;0.30;;;2.60;99.90;;;;;;5135790;27;20986;-78
2022/02/05 00:58:29;;;;;;;0.30;0.30;;;2.50;99.90;;;;;;5136127;27;20462;-78
2022/02/05 01:00:56;;;;;;;0.30;0.30;;;2.50;99.90;;;;;;5136068;27;20434;-78
2022/02/05 01:03:23;;;;;;;0.30;0.20;;;2.50;99.90;;;;;;5135961;27;20475;-78
2022/02/05 01:05:51;;;;;;;0.50;0.50;;;2.40;99.90;;;;;;5135895;27;20469;-78
2022/02/05 01:08:18;;;;;;;0.30;0.20;;;2.40;99.90;;;;;;5135832;27;20469;-78
2022/02/05 01:10:45;;;;;;;0.30;0.30;;;2.30;99.90;;;;;;5135874;27;20446;-78
2022/02/05 01:13:13;;;;;;;0.40;0.40;;;2.40;99.90;;;;;;5135785;27;20495;-78
2022/02/05 01:15:45;;;;;;;0.30;0.30;;;2.30;99.90;;;;;;5135673;27;20481;-78
2022/02/05 01:18:14;;;;;;;0.30;0.30;;;2.30;99.90;;;;;;5135693;27;20782;-79
2022/02/05 01:23:34;;;;;;;0.30;0.30;;;2.20;99.90;;;;;;5135667;27;20448;-78
2022/02/05 01:26:09;;;;;;;0.30;0.20;;;2.20;99.90;;;;;;5135198;27;21019;-78
2022/02/05 01:28:37;;;;;;;0.30;0.20;;;2.10;99.90;;;;;;5135455;27;20501;-78
2022/02/05 01:31:04;;;;;;;0.30;0.20;;;2.10;99.90;;;;;;5135394;27;20454;-78
2022/02/05 01:33:46;;;;;;;0.30;0.20;;;2.10;99.90;;;;;;5135454;27;20445;-78
2022/02/05 01:36:31;;;;;;;0.30;0.30;;;2.10;99.90;;;;;;5134891;27;20534;-78
2022/02/05 01:39:36;;;;;;;0.30;0.30;;;2.10;99.90;;;;;;5135340;27;20537;-78
2022/02/05 01:50:33;;;;;;;0.30;0.20;;;2.00;99.90;;;;;;5135111;27;20394;-78
2022/02/05 01:53:09;;;;;;;0.83;0.30;;;2.00;99.90;;;;;;5135083;27;20483;-78
2022/02/05 01:55:54;;;;;;;0.30;0.20;;;2.00;99.90;;;;;;5134955;27;20534;-78
2022/02/05 01:58:26;;;;;;;0.30;0.20;;;2.00;99.90;;;;;;5134972;27;20426;-78
2022/02/05 02:06:34;;;;;;;0.30;0.20;;;1.90;99.90;;;;;;5134648;27;20491;-78
2022/02/05 02:11:50;;;;;;;0.30;0.30;;;1.90;99.90;;;;;;5134534;27;20440;-78
2022/02/05 02:14:33;;;;;;;0.30;0.30;;;1.80;99.90;;;;;;5134393;27;20503;-78
2022/02/05 02:17:33;;;;;;;0.30;0.27;;;1.80;99.90;;;;;;5134628;27;20476;-78
2022/02/05 02:20:11;;;;;;;0.60;0.60;;;1.80;99.90;;;;;;5134146;27;20434;-78
2022/02/05 02:22:46;;;;;;;0.30;0.20;;;1.80;99.90;;;;;;5134639;27;20517;-78
2022/02/05 02:25:26;;;;;;;0.30;0.30;;;1.80;99.90;;;;;;5134255;27;20438;-78
2022/02/05 02:28:02;;;;;;;0.30;0.30;;;1.80;99.90;;;;;;5134426;27;20564;-78
2022/02/05 02:30:34;;;;;;;0.30;0.30;;;1.70;99.90;;;;;;5134344;27;20525;-78
2022/02/05 02:33:08;;;;;;;0.30;0.20;;;1.70;99.90;;;;;;5134518;27;20473;-78
2022/02/05 02:35:39;;;;;;;0.30;0.20;;;1.60;99.90;;;;;;5134033;27;20550;-78
2022/02/05 02:38:11;;;;;;;0.30;0.20;;;1.50;99.90;;;;;;5134446;27;20422;-78
2022/02/05 02:40:43;;;;;;;0.40;0.40;;;1.50;99.90;;;;;;5135258;27;20524;-78
2022/02/05 02:43:16;;;;;;;0.30;0.30;;;1.50;99.90;;;;;;5134078;27;20917;-78
2022/02/05 02:45:45;;;;;;;0.30;0.30;;;1.50;99.90;;;;;;5133978;27;20961;-78
2022/02/05 02:48:12;;;;;;;0.30;0.20;;;1.50;99.90;;;;;;5134241;27;20478;-78
2022/02/05 02:56:47;;;;;;;0.30;0.30;;;1.50;99.90;;;;;;5090695;28;20459;-78
2022/02/05 02:59:25;;;;;;;0.57;0.33;;;1.50;99.90;;;;;;5090933;28;20939;-78
2022/02/05 03:01:58;;;;;;;0.30;0.30;;;1.50;99.90;;;;;;5121229;27;20445;-78
2022/02/05 03:04:25;;;;;;;0.30;0.20;;;1.40;99.90;;;;;;5134228;27;20479;-78
2022/02/05 03:06:53;;;;;;;0.30;0.30;;;1.50;99.90;;;;;;5133793;27;20557;-78
2022/02/05 03:09:22;;;;;;;0.30;0.30;;;1.50;99.90;;;;;;5134045;27;20470;-78
2022/02/05 03:11:49;;;;;;;0.30;0.20;;;1.50;99.90;;;;;;5134109;27;20438;-78
2022/02/05 03:14:15;;;;;;;0.30;0.30;;;1.40;99.90;;;;;;5134066;27;20449;-78
2022/02/05 03:16:48;;;;;;;0.30;0.30;;;1.40;99.90;;;;;;5133987;27;20466;-78
2022/02/05 03:19:15;;;;;;;0.30;0.30;;;1.40;99.90;;;;;;5134071;27;20429;-78
2022/02/05 03:21:43;;;;;;;0.30;0.30;;;1.30;99.90;;;;;;5133991;27;20442;-78
2022/02/05 03:24:10;;;;;;;0.30;0.30;;;1.30;99.90;;;;;;5133977;27;20478;-78
2022/02/05 03:26:38;;;;;;;0.30;0.30;;;1.30;99.90;;;;;;5133872;27;20852;-78
2022/02/05 03:29:07;;;;;;;0.30;0.27;;;1.30;99.90;;;;;;5133521;27;20470;-78
2022/02/05 03:31:34;;;;;;;0.30;0.30;;;1.30;99.90;;;;;;5133879;27;20519;-78
2022/02/05 03:34:01;;;;;;;0.53;0.40;;;1.30;99.90;;;;;;5133883;27;20446;-78
2022/02/05 03:36:28;;;;;;;0.30;0.30;;;1.20;99.90;;;;;;5133295;27;20485;-78
2022/02/05 03:38:55;;;;;;;0.30;0.30;;;1.20;99.90;;;;;;5133869;27;20442;-79
2022/02/05 03:41:22;;;;;;;0.30;0.20;;;1.20;99.90;;;;;;5133907;27;20449;-78
2022/02/05 03:43:50;;;;;;;0.30;0.30;;;1.20;99.90;;;;;;5136588;27;20446;-78
2022/02/05 03:46:17;;;;;;;0.30;0.30;;;1.30;99.90;;;;;;5137428;27;20461;-78
2022/02/05 03:48:44;;;;;;;0.30;0.30;;;1.30;99.90;;;;;;5137247;27;20486;-78
2022/02/05 03:51:11;;;;;;;0.30;0.30;;;1.30;99.90;;;;;;5137432;27;20856;-78
2022/02/05 03:53:37;;;;;;;0.30;0.30;;;1.30;99.90;;;;;;5137356;27;20417;-78
2022/02/05 03:56:04;;;;;;;0.30;0.30;;;1.30;99.90;;;;;;5137246;27;20505;-78
2022/02/05 03:58:31;;;;;;;0.30;0.30;;;1.30;99.90;;;;;;5137266;27;20804;-78
2022/02/05 04:00:59;;;;;;;0.30;0.30;;;1.30;99.90;;;;;;5137227;27;20474;-78
2022/02/05 04:03:26;;;;;;;0.30;0.30;;;1.40;99.90;;;;;;5137205;27;20438;-79
2022/02/05 04:05:53;;;;;;;0.30;0.30;;;1.40;99.90;;;;;;5137083;27;20470;-78
2022/02/05 04:08:19;;;;;;;0.30;0.20;;;1.40;99.90;;;;;;5136992;27;20482;-78
2022/02/05 04:10:51;;;;;;;0.30;0.20;;;1.40;99.90;;;;;;5136706;27;20929;-78
2022/02/05 04:16:21;;;;;;;0.30;0.30;;;1.50;99.90;;;;;;5136926;27;20441;-78
2022/02/05 04:18:47;;;;;;;0.30;0.30;;;1.60;99.90;;;;;;5136955;27;20434;-78
2022/02/05 04:21:15;;;;;;;0.30;0.30;;;1.60;99.90;;;;;;5136872;27;20442;-78
2022/02/05 04:23:41;;;;;;;0.30;0.20;;;1.60;99.90;;;;;;5136825;27;20816;-78
2022/02/05 04:26:08;;;;;;;0.30;0.20;;;1.70;99.90;;;;;;5136389;27;20964;-78
2022/02/05 04:28:35;;;;;;;0.30;0.30;;;1.70;99.90;;;;;;5136633;27;20482;-79
2022/02/05 04:31:04;;;;;;;0.30;0.20;;;1.80;99.90;;;;;;5136351;27;20950;-79
2022/02/05 04:33:30;;;;;;;0.30;0.30;;;1.80;99.90;;;;;;5136621;27;20438;-79
2022/02/05 04:35:57;;;;;;;0.30;0.20;;;1.80;99.90;;;;;;5136033;27;21000;-78
2022/02/05 04:38:24;;;;;;;1.13;0.60;;;1.80;99.90;;;;;;5136496;27;20442;-78
2022/02/05 04:40:55;;;;;;;0.30;0.30;;;1.80;99.90;;;;;;5136497;27;20533;-78
2022/02/05 04:43:50;;;;;;;0.40;0.40;;;1.90;99.90;;;;;;5136454;27;20430;-78
2022/02/05 04:46:33;;;;;;;0.30;0.30;;;1.90;99.90;;;;;;5135919;27;20466;-78
2022/02/05 04:52:07;;;;;;;0.30;0.30;;;2.00;99.90;;;;;;5136091;27;20880;-78
2022/02/05 04:57:35;;;;;;;0.30;0.20;;;2.10;99.90;;;;;;5133809;27;20449;-78
2022/02/05 05:00:15;;;;;;;0.30;0.30;;;2.10;99.90;;;;;;5136134;27;20426;-78
2022/02/05 05:03:01;;;;;;;0.40;0.40;;;2.10;99.90;;;;;;5136096;27;20427;-78
2022/02/05 05:05:45;;;;;;;0.30;0.20;;;2.10;99.90;;;;;;5135630;27;20521;-78
2022/02/05 05:22:03;;;;;;;0.30;0.20;;;2.20;99.90;;;;;;5090348;28;20443;-78
2022/02/05 05:24:31;;;;;;;0.30;0.30;;;2.20;99.90;;;;;;5090742;28;20439;-78
2022/02/05 05:26:59;;;;;;;0.30;0.30;;;2.20;99.90;;;;;;5090630;28;20467;-78
2022/02/05 05:29:25;;;;;;;0.30;0.30;;;2.20;99.90;;;;;;5091189;28;20441;-78
2022/02/05 05:31:52;;;;;;;0.30;0.30;;;2.10;99.90;;;;;;5090623;28;20439;-78
2022/02/05 05:34:19;;;;;;;0.30;0.20;;;2.10;99.90;;;;;;5090556;28;20451;-78
2022/02/05 05:36:46;;;;;;;0.30;0.30;;;2.10;99.90;;;;;;5090455;28;20442;-78
2022/02/05 05:39:14;;;;;;;0.30;0.20;;;2.00;99.90;;;;;;5090388;28;20458;-78
2022/02/05 05:41:41;;;;;;;0.30;0.30;;;2.00;99.90;;;;;;5090423;28;20448;-78
2022/02/05 05:44:33;;;;;;;0.30;0.30;;;2.00;99.90;;;;;;5090384;28;20444;-78
2022/02/05 05:47:18;;;;;;;0.30;0.20;;;2.00;99.90;;;;;;5090309;28;20476;-78
2022/02/05 05:50:00;;;;;;;0.30;0.20;;;2.00;99.90;;;;;;5090305;28;20431;-78
2022/02/05 05:52:27;;;;;;;0.30;0.30;;;2.00;99.90;;;;;;5090287;28;20523;-78
2022/02/05 05:54:54;;;;;;;0.30;0.30;;;2.00;99.90;;;;;;5090151;28;20448;-78
2022/02/05 05:57:21;;;;;;;0.30;0.30;;;2.00;99.90;;;;;;5090095;28;20464;-78
2022/02/05 05:59:49;;;;;;;0.30;0.30;;;2.00;99.90;;;;;;5089717;28;20994;-79
2022/02/05 06:02:16;;;;;;;0.40;0.40;;;2.00;99.90;;;;;;5090605;28;20415;-79
2022/02/05 06:04:43;;;;;;;0.30;0.30;;;2.10;99.90;;;;;;5090124;28;20452;-78
2022/02/05 06:07:10;;;;;;;0.30;0.30;;;2.10;99.90;;;;;;5089900;28;20464;-79
2022/02/05 06:09:41;;;;;;;0.30;0.20;;;2.20;99.90;;;;;;5089509;28;20475;-79
2022/02/05 06:12:09;;;;;;;0.30;0.20;;;2.10;99.90;;;;;;5089887;28;20435;-79
2022/02/05 06:14:37;;;;;;;0.30;0.30;;;2.10;99.90;;;;;;5089815;28;20467;-79
2022/02/05 06:17:09;;;;;;;0.30;0.30;;;2.10;99.90;;;;;;5089677;28;20467;-78
2022/02/05 06:19:37;;;;;;;0.30;0.30;;;2.10;99.90;;;;;;5090492;28;20439;-78
2022/02/05 06:22:05;;;;;;;0.30;0.30;;;2.20;99.90;;;;;;5078462;28;20444;-78
2022/02/05 06:24:31;;;;;;;0.30;0.30;;;2.20;99.90;;;;;;5075795;28;20475;-78
2022/02/05 06:26:58;;;;;;;0.30;0.30;;;2.20;99.90;;;;;;5075763;28;20453;-78
2022/02/05 06:29:25;;;;;;;0.30;0.30;;;2.20;99.90;;;;;;5076047;28;20444;-78
2022/02/05 06:31:51;;;;;;;0.30;0.30;;;2.20;99.90;;;;;;5075972;28;20461;-78
2022/02/05 06:34:20;;;;;;;0.30;0.30;;;2.30;99.90;;;;;;5075925;28;20445;-78
2022/02/05 06:36:46;;;;;;;0.30;0.30;;;2.20;99.90;;;;;;5075838;28;20465;-78
2022/02/05 06:39:13;;;;;;;0.30;0.20;;;2.20;99.90;;;;;;5075803;28;20448;-78
2022/02/05 06:41:40;;;;;;;0.30;0.20;;;2.20;99.90;;;;;;5075787;28;20452;-78
2022/02/05 06:44:06;;;;;;;0.30;0.30;;;2.10;99.90;;;;;;5075761;28;20456;-78
2022/02/05 06:46:33;;;;;;;0.30;0.30;;;2.10;99.90;;;;;;5075654;28;20472;-78
2022/02/05 06:49:00;;;;;;;0.30;0.30;;;2.00;99.90;;;;;;5075688;28;20522;-78
2022/02/05 06:51:28;;;;;;;0.30;0.20;;;1.90;99.90;;;;;;5075607;28;20453;-78
2022/02/05 06:53:55;;;;;;;0.30;0.20;;;1.90;99.90;;;;;;5075617;28;20448;-78
2022/02/05 06:56:21;;;;;;;0.30;0.20;;;1.80;99.90;;;;;;5075461;28;20543;-78
2022/02/05 06:58:49;;;;;;;0.30;0.30;;;1.80;99.90;;;;;;5075488;28;20449;-78
2022/02/05 07:01:16;;;;;;;0.33;0.33;;;1.80;99.90;;;;;;5075377;28;20854;-78
2022/02/05 07:03:42;;;;;;;0.30;0.30;;;1.80;99.90;;;;;;5075084;28;20448;-78
2022/02/05 07:06:09;;;;;;;0.30;0.30;;;1.70;99.90;;;;;;5075258;28;20469;-78
2022/02/05 07:08:40;;;;;;;0.50;0.50;;;1.80;99.90;;;;;;5074989;28;20936;-78
2022/02/05 07:11:07;;;;;;;0.30;0.30;;;1.80;99.90;;;;;;5074997;28;20952;-78
2022/02/05 07:13:34;;;;;;;0.40;0.40;;;1.70;99.90;;;;;;5075253;28;20448;-78
2022/02/05 07:16:07;;;;;;;0.30;0.30;;;1.70;99.90;;;;;;5075059;28;20472;-78
2022/02/05 07:18:42;;;;;;;0.30;0.30;;;1.70;99.90;;;;;;5075149;28;20429;-78
2022/02/05 07:21:12;;;;;;;0.30;0.20;;;1.70;99.90;;;;;;5074999;28;20472;-78
2022/02/05 07:23:55;;;;;;;0.30;0.30;;;1.70;99.90;;;;;;5075095;28;20495;-78
2022/02/05 07:29:15;;;;;;;0.30;0.30;;;1.70;99.90;;;;;;5074983;28;20443;-79
2022/02/05 07:31:44;;;;;;;0.40;0.40;;;1.60;99.90;;;;;;5074820;28;20428;-78
2022/02/05 07:34:12;;;;;;;0.30;0.20;;;1.60;99.90;;;;;;5073552;28;20445;-78
2022/02/05 07:36:39;;;;;;;0.30;0.30;;;1.60;99.90;;;;;;5074614;28;20871;-78
2022/02/05 07:39:09;;;;;;;1.17;1.17;;;1.60;99.90;;;;;;5074638;28;20445;-78
2022/02/05 07:41:36;;;;;;;0.30;0.30;;;1.60;99.90;;;;;;5074846;28;20530;-78
2022/02/05 07:44:03;;;;;;;0.30;0.20;;;1.60;99.90;;;;;;5074588;28;20445;-78
2022/02/05 07:46:30;;;;;;;0.30;0.20;;;1.60;99.90;;;;;;5074444;28;20471;-78
2022/02/05 07:48:57;;;;;;;0.30;0.30;;;1.60;99.90;;;;;;5074491;28;20444;-78
2022/02/05 07:51:24;;;;;;;0.30;0.30;;;1.70;99.90;;;;;;5074453;28;20456;-78
2022/02/05 07:53:51;;;;;;;0.40;0.30;;;1.70;99.90;;;;;;5074412;28;20522;-78
2022/02/05 07:56:19;;;;;;;0.30;0.20;;;1.80;99.90;;;;;;5074234;28;20476;-78
2022/02/05 07:58:45;;;;;;;0.30;0.30;;;1.80;99.90;;;;;;5074262;28;20445;-78
2022/02/05 08:01:12;;;;;;;0.70;0.70;;;1.80;99.90;;;;;;5074157;28;20503;-78
2022/02/05 08:03:39;;;;;;;0.30;0.20;;;1.90;99.90;;;;;;5074227;28;20789;-78
2022/02/05 08:06:14;;;;;;;0.30;0.20;;;1.90;99.90;;;;;;5073769;28;20983;-78
2022/02/05 08:08:41;;;;;;;0.30;0.20;;;2.00;99.90;;;;;;5073855;28;20448;-78
2022/02/05 08:11:11;;;;;;;0.30;0.20;;;2.00;99.90;;;;;;5074075;28;20447;-78
2022/02/05 08:13:42;;;;;;;0.30;0.30;;;2.10;99.90;;;;;;5073973;28;20441;-78
2022/02/05 08:16:25;;;;;;;0.30;0.30;;;2.20;99.90;;;;;;5073672;28;21034;-78
2022/02/05 08:18:52;;;;;;;0.30;0.20;;;2.30;99.90;;;;;;5073780;28;20909;-78
2022/02/05 08:21:18;;;;;;;0.30;0.30;;;2.40;99.90;;;;;;5073857;28;20473;-78
2022/02/05 08:23:45;;;;;;;0.30;0.20;;;2.50;99.90;;;;;;5073848;28;20433;-78
2022/02/05 08:26:12;;;;;;;0.30;0.30;;;2.60;99.90;;;;;;5073756;28;20830;-78
2022/02/05 08:28:40;;;;;;;0.30;0.30;;;2.60;99.90;;;;;;5074602;28;20429;-78
2022/02/05 08:31:07;;;;;;;0.30;0.20;;;2.70;99.90;;;;;;5073781;28;20436;-78
2022/02/05 08:33:36;;;;;;;0.30;0.20;;;2.70;99.90;;;;;;5073393;28;20909;-78
2022/02/05 08:36:04;;;;;;;0.30;0.20;;;2.70;99.90;;;;;;5073613;28;20469;-78
2022/02/05 08:38:30;;;;;;;0.30;0.20;;;2.90;99.90;;;;;;5073711;28;20436;-78
2022/02/05 08:40:57;;;;;;;0.30;0.20;;;3.00;99.90;;;;;;5073571;28;20472;-78
2022/02/05 08:43:24;;;;;;;0.30;0.30;;;3.20;99.90;;;;;;5073198;28;20919;-78
2022/02/05 08:45:52;;;;;;;0.30;0.20;;;3.30;99.90;;;;;;5073371;28;20475;-79
2022/02/05 08:48:19;;;;;;;0.30;0.20;;;3.40;99.90;;;;;;5073264;28;20448;-79
2022/02/05 08:50:46;;;;;;;0.30;0.20;;;3.50;99.90;;;;;;5073541;28;20475;-79
2022/02/05 08:53:19;;;;;;;0.30;0.20;;;3.60;99.90;;;;;;5073444;28;20444;-78
2022/02/05 08:55:46;;;;;;;0.30;0.30;;;3.80;99.90;;;;;;5073367;28;20473;-78
2022/02/05 08:58:12;;;;;;;0.30;0.20;;;4.20;99.90;;;;;;5073376;28;20445;-78
2022/02/05 09:00:46;;;;;;;0.30;0.30;;;4.50;99.90;;;;;;5073021;28;20484;-78
2022/02/05 09:03:25;;;;;;;0.30;0.30;;;4.90;99.90;;;;;;5073115;28;20475;-78
2022/02/05 09:05:52;;;;;;;0.30;0.20;;;5.50;99.90;;;;;;5072959;28;20473;-78
2022/02/05 09:08:24;;;;;;;0.30;0.20;;;6.40;99.90;;;;;;5073280;28;20452;-78
2022/02/05 09:11:02;;;;;;;0.30;0.30;;;7.30;99.90;;;;;;5072986;28;20501;-78
2022/02/05 09:13:59;;;;;;;0.30;0.20;;;8.30;99.90;;;;;;5073289;28;20439;-78
2022/02/05 09:16:25;;;;;;;0.40;0.30;;;9.40;99.90;;;;;;5072709;28;20464;-78
2022/02/05 09:18:53;;;;;;;0.30;0.20;;;10.90;99.90;;;;;;5073134;28;20449;-78
2022/02/05 09:21:20;;;;;;;0.40;0.30;;;11.70;99.90;;;;;;5073105;28;20495;-78
2022/02/05 09:23:52;;;;;;;0.40;0.30;;;12.40;99.90;;;;;;5073162;28;20456;-78
2022/02/05 09:26:19;;;;;;;0.30;0.20;;;13.00;98.10;;;;;;5073098;28;20475;-79
2022/02/05 09:28:47;;;;;;;1.13;0.40;;;13.60;95.20;;;;;;5073121;28;20444;-79
2022/02/05 09:31:27;;;;;;;0.50;0.50;;;14.30;90.30;;;;;;5073034;28;20547;-79
2022/02/05 09:33:55;;;;;;;0.30;0.30;;;14.80;85.80;;;;;;5073807;28;20444;-79
2022/02/05 09:36:23;;;;;;;0.30;0.30;;;15.40;83.50;;;;;;5072929;28;20476;-79
2022/02/05 09:38:50;;;;;;;0.33;0.33;;;15.80;77.50;;;;;;5072973;28;20472;-79
2022/02/05 09:41:17;;;;;;;0.40;0.40;;;16.30;73.40;;;;;;5072949;28;20550;-79
2022/02/05 09:43:47;;;;;;;0.47;0.30;;;16.40;71.90;;;;;;5072690;28;20948;-79
2022/02/05 09:46:15;;;;;;;0.37;0.33;;;16.50;69.60;;;;;;5072901;28;20465;-79
2022/02/05 09:48:44;;;;;;;0.40;0.40;;;16.50;68.80;;;;;;5072635;28;20451;-79
2022/02/05 09:51:17;;;;;;;0.40;0.30;;;15.90;68.50;;;;;;5072575;28;20936;-79
2022/02/05 09:53:49;;;;;;;0.37;0.33;;;15.80;68.10;;;;;;5072936;28;20440;-79
2022/02/05 09:56:16;;;;;;;0.70;0.40;;;15.70;68.50;;;;;;5073841;28;20803;-79
2022/02/05 09:58:43;;;;;;;0.50;0.30;;;15.40;67.60;;;;;;5076238;28;20967;-79
2022/02/05 10:01:14;;;;;;;0.30;0.30;;;15.50;67.10;;;;;;5076426;28;20488;-79
2022/02/05 10:03:43;;;;;;;0.30;0.30;;;14.80;67.50;;;;;;5076202;28;20437;-79
2022/02/05 10:06:13;;;;;;;5.13;0.40;;;14.30;68.70;;;;;;5076355;28;20468;-79
2022/02/05 10:08:45;;;;;;;0.47;0.30;;;14.20;70.00;;;;;;5076264;28;20875;-79
2022/02/05 10:11:12;;;;;;;0.70;0.40;;;14.00;69.70;;;;;;5076416;28;20456;-79
2022/02/05 10:13:41;;;;;;;0.40;0.33;;;14.10;70.90;;;;;;5076333;28;20437;-79
2022/02/05 10:16:08;;;;;;;0.30;0.30;;;14.10;70.40;;;;;;5076243;28;20579;-78
2022/02/05 10:18:37;;;;;;;0.30;0.30;;;14.50;68.80;;;;;;5075978;28;20425;-78
2022/02/05 10:21:18;;;;;;;0.30;0.30;;;14.80;68.00;;;;;;5076141;28;20470;-78
2022/02/05 10:23:58;;;;;;;0.30;0.27;;;15.10;66.40;;;;;;5076212;28;20440;-78
2022/02/05 10:26:36;;;;;;;0.87;0.87;;;15.30;66.70;;;;;;5075786;28;20976;-78
2022/02/05 10:29:07;;;;;;;0.30;0.30;;;14.80;66.10;;;;;;5076124;28;20490;-78
2022/02/05 10:31:55;;;;;;;0.30;0.30;;;14.00;66.60;;;;;;5076086;28;20429;-78
2022/02/05 10:34:22;;;;;;;0.40;0.30;;;13.40;68.40;;;;;;5076028;28;20444;-78
2022/02/05 10:37:06;;;;;;;0.30;0.30;;;13.00;67.50;;;;;;5075640;28;20984;-78
2022/02/05 10:39:52;;;;;;;0.30;0.20;;;12.60;70.70;;;;;;5075919;28;20463;-78
2022/02/05 10:45:04;;;;;;;0.30;0.27;;;11.70;71.30;;;;;;5062456;28;20421;-78
2022/02/05 10:47:49;;;;;;;0.40;0.30;;;11.20;74.00;;;;;;5075527;28;20461;-79
2022/02/05 10:50:18;;;;;;;0.40;0.30;;;10.80;75.40;;;;;;5075666;28;20428;-79
2022/02/05 10:52:51;;;;;;;0.30;0.27;;;10.60;75.20;;;;;;5075640;28;20425;-79
2022/02/05 10:55:26;;;;;;;0.60;0.40;;;10.60;77.80;;;;;;5075546;28;20433;-79
2022/02/05 10:58:11;;;;;;;0.40;0.30;;;10.70;77.60;;;;;;5075580;28;20847;-79
2022/02/05 11:06:07;;;;;;;0.30;0.20;;;11.10;75.90;;;;;;5075038;28;20439;-78
2022/02/05 11:08:34;;;;;;;0.30;0.20;;;10.80;76.10;;;;;;5075213;28;20807;-79
2022/02/05 11:14:00;;;;;;;0.30;0.30;;;10.10;78.00;;;;;;5074999;28;20507;-79
2022/02/05 11:19:11;;;;;;;0.30;0.20;;;9.60;78.90;;;;;;5075182;28;20409;-78
2022/02/05 11:21:38;;;;;;;0.30;0.20;;;9.30;81.20;;;;;;5074654;28;21038;-82
2022/02/05 11:24:07;;;;;;;0.30;0.30;;;9.20;80.80;;;;;;5074981;28;20456;-79
2022/02/05 11:26:35;;;;;;;0.30;0.30;;;9.10;81.60;;;;;;5074890;28;20469;-79
2022/02/05 11:29:05;;;;;;;0.30;0.30;;;9.10;82.00;;;;;;5075060;28;20445;-79
2022/02/05 11:31:36;;;;;;;1.23;1.23;;;9.10;83.20;;;;;;5074486;28;20993;-80
2022/02/05 11:34:24;;;;;;;0.30;0.30;;;9.00;82.60;;;;;;5074612;28;20460;-80
2022/02/05 11:37:05;;;;;;;0.30;0.20;;;8.90;81.20;;;;;;5074740;28;20530;-80
2022/02/05 11:39:45;;;;;;;0.60;0.60;;;8.70;83.00;;;;;;5074786;28;20468;-80
2022/02/05 11:42:27;;;;;;;0.30;0.20;;;8.60;83.80;;;;;;5074338;28;20513;-80
2022/02/05 11:44:55;;;;;;;0.30;0.30;;;8.50;84.10;;;;;;5075149;28;20432;-80
2022/02/05 11:47:32;;;;;;;0.33;0.27;;;8.50;84.10;;;;;;5074445;28;20469;-80
2022/02/05 11:50:23;;;;;;;0.30;0.30;;;8.40;85.70;;;;;;5074498;28;20437;-79
2022/02/05 11:53:11;;;;;;;0.30;0.30;;;8.40;84.80;;;;;;5074606;28;20425;-79
2022/02/05 11:55:43;;;;;;;0.30;0.20;;;8.40;85.00;;;;;;5074270;28;20468;-81
2022/02/05 11:58:13;;;;;;;0.30;0.30;;;8.40;84.50;;;;;;5074340;28;20440;-81
2022/02/05 12:00:43;;;;;;;0.30;0.30;;;8.30;85.70;;;;;;5074319;28;20464;-81
2022/02/05 12:03:36;;;;;;;0.30;0.20;;;8.40;86.00;;;;;;5074179;28;20420;-80
2022/02/05 12:06:10;;;;;;;0.30;0.20;;;8.30;85.40;;;;;;5074345;28;20465;-81
2022/02/05 12:08:41;;;;;;;0.30;0.30;;;8.20;86.40;;;;;;5074050;28;20479;-80
2022/02/05 12:11:32;;;;;;;0.30;0.20;;;8.20;87.90;;;;;;5074101;28;20444;-80
2022/02/05 12:14:15;;;;;;;0.30;0.20;;;8.00;83.90;;;;;;5074032;28;20441;-81
2022/02/05 12:17:15;;;;;;;0.30;0.20;;;8.00;82.40;;;;;;5073572;28;20472;-81
2022/02/05 12:20:02;;;;;;;0.30;0.20;;;7.90;83.00;;;;;;5073121;28;20433;-81
2022/02/05 12:23:00;;;;;;;0.30;0.20;;;7.70;84.20;;;;;;5073808;28;20476;-81
2022/02/05 12:25:27;;;;;;;0.30;0.20;;;7.60;83.90;;;;;;5073460;28;20924;-80
2022/02/05 12:27:53;;;;;;;0.30;0.30;;;7.50;84.60;;;;;;5073835;28;20444;-81
2022/02/05 12:30:42;;;;;;;0.30;0.20;;;7.30;84.10;;;;;;5073745;28;20433;-81
2022/02/05 12:33:11;;;;;;;0.40;0.30;;;7.30;83.90;;;;;;5073795;28;20478;-80
2022/02/05 12:35:49;;;;;;;0.30;0.20;;;7.20;85.50;;;;;;5073665;28;20518;-80
2022/02/05 12:38:16;;;;;;;0.30;0.20;;;7.20;86.60;;;;;;5073668;28;20448;-80
2022/02/05 12:40:44;;;;;;;0.30;0.20;;;7.20;86.50;;;;;;5073640;28;20429;-80
2022/02/05 12:43:12;;;;;;;0.30;0.20;;;7.20;88.10;;;;;;5073250;28;20968;-80
2022/02/05 12:45:50;;;;;;;0.30;0.20;;;7.20;86.20;;;;;;5073566;28;20472;-80
2022/02/05 12:48:22;;;;;;;0.30;0.30;;;7.10;87.50;;;;;;5073573;28;20433;-80
2022/02/05 12:50:50;;;;;;;0.30;0.20;;;7.10;86.70;;;;;;5073223;28;20543;-80
2022/02/05 12:53:17;;;;;;;0.30;0.30;;;7.00;87.60;;;;;;5073254;28;20425;-80
2022/02/05 12:55:46;;;;;;;0.30;0.20;;;7.00;87.90;;;;;;5073438;28;20522;-80
2022/02/05 12:58:17;;;;;;;0.30;0.20;;;7.00;87.20;;;;;;5073585;28;20527;-80
2022/02/05 13:00:46;;;;;;;0.30;0.20;;;6.90;86.50;;;;;;5073405;28;20807;-80
2022/02/05 13:03:26;;;;;;;0.30;0.30;;;6.80;88.10;;;;;;5073342;28;20465;-80
2022/02/05 13:05:53;;;;;;;0.30;0.20;;;6.90;88.10;;;;;;5073018;28;20483;-80
2022/02/05 13:08:21;;;;;;;0.30;0.20;;;6.90;88.90;;;;;;5073445;28;20437;-80
2022/02/05 13:10:49;;;;;;;0.30;0.20;;;6.80;90.20;;;;;;5072867;28;20571;-80
2022/02/05 13:13:16;;;;;;;0.30;0.27;;;6.80;91.40;;;;;;5073253;28;20434;-80
2022/02/05 13:15:43;;;;;;;0.30;0.20;;;6.80;91.70;;;;;;5073170;28;20469;-80
2022/02/05 13:18:24;;;;;;;0.30;0.20;;;6.90;90.10;;;;;;5073284;28;20442;-80
2022/02/05 13:26:27;;;;;;;0.30;0.30;;;6.80;90.00;;;;;;5072889;28;20801;-82
2022/02/05 13:34:34;;;;;;;0.30;0.20;;;6.60;91.20;;;;;;5076961;28;20475;-79
2022/02/05 13:37:10;;;;;;;0.30;0.30;;;6.60;91.40;;;;;;5077049;28;20464;-79
2022/02/05 13:39:47;;;;;;;0.30;0.20;;;6.60;91.50;;;;;;5077005;28;20424;-79
2022/02/05 13:42:19;;;;;;;0.30;0.30;;;6.60;90.60;;;;;;5076856;28;20480;-79
2022/02/05 13:44:58;;;;;;;0.30;0.30;;;6.50;90.90;;;;;;5076982;28;20444;-79
2022/02/05 13:47:27;;;;;;;0.30;0.20;;;6.60;90.90;;;;;;5076488;28;20468;-79
2022/02/05 13:50:07;;;;;;;0.30;0.30;;;6.70;90.80;;;;;;5076738;28;20475;-79
2022/02/05 13:52:36;;;;;;;0.30;0.20;;;6.60;90.50;;;;;;5076788;28;20621;-79
2022/02/05 13:55:14;;;;;;;0.30;0.20;;;6.50;91.00;;;;;;5076731;28;20421;-79
2022/02/05 13:58:02;;;;;;;0.30;0.20;;;6.50;91.70;;;;;;5076343;28;20439;-79
2022/02/05 14:00:44;;;;;;;0.30;0.20;;;6.50;91.10;;;;;;5076595;28;20433;-79
2022/02/05 14:03:13;;;;;;;0.40;0.30;;;6.50;91.40;;;;;;5076478;28;20888;-79
2022/02/05 14:06:00;;;;;;;0.40;0.40;;;6.50;91.90;;;;;;5076095;28;20976;-79
2022/02/05 14:08:28;;;;;;;0.40;0.40;;;6.50;91.70;;;;;;5076494;28;20474;-79
2022/02/05 14:10:56;;;;;;;0.30;0.20;;;6.40;91.20;;;;;;5076143;28;20492;-79
2022/02/05 14:13:23;;;;;;;0.30;0.20;;;6.30;90.90;;;;;;5076362;28;20440;-79
2022/02/05 14:15:55;;;;;;;0.30;0.20;;;6.20;91.60;;;;;;5076226;28;20479;-79
2022/02/05 14:18:23;;;;;;;0.30;0.20;;;6.20;91.50;;;;;;5076338;28;20802;-79
2022/02/05 14:20:53;;;;;;;0.30;0.20;;;6.10;91.60;;;;;;5076205;28;20448;-79
2022/02/05 14:23:22;;;;;;;0.30;0.20;;;6.20;92.50;;;;;;5076148;28;20476;-79
2022/02/05 14:25:52;;;;;;;0.30;0.20;;;6.20;92.50;;;;;;5076053;28;20495;-79
2022/02/05 14:28:28;;;;;;;0.50;0.30;;;6.30;92.50;;;;;;5076145;28;20434;-79
2022/02/05 14:31:04;;;;;;;0.30;0.30;;;6.30;92.60;;;;;;5076041;28;20428;-79
2022/02/05 14:33:41;;;;;;;0.30;0.20;;;6.30;92.70;;;;;;5076051;28;20425;-79
2022/02/05 14:36:22;;;;;;;0.30;0.20;;;6.20;92.30;;;;;;5075675;28;20967;-79
2022/02/05 14:41:33;;;;;;;0.30;0.30;;;6.20;93.60;;;;;;5075246;28;20478;-79
2022/02/05 14:44:00;;;;;;;0.30;0.20;;;6.10;93.90;;;;;;5075796;28;20449;-79
2022/02/05 14:46:26;;;;;;;0.30;0.30;;;6.10;92.60;;;;;;5075759;28;20465;-79
2022/02/05 14:48:53;;;;;;;0.30;0.20;;;6.00;92.70;;;;;;5075782;28;20444;-79
2022/02/05 14:51:21;;;;;;;0.30;0.23;;;6.00;93.10;;;;;;5075695;28;20449;-79
2022/02/05 14:53:48;;;;;;;0.30;0.30;;;5.90;93.20;;;;;;5075702;28;20812;-79
2022/02/05 14:56:15;;;;;;;0.60;0.60;;;5.90;93.60;;;;;;5075519;28;20468;-79
2022/02/05 14:58:41;;;;;;;0.30;0.30;;;5.80;93.60;;;;;;5075638;28;20445;-79
2022/02/05 15:01:08;;;;;;;0.30;0.20;;;5.70;94.60;;;;;;5075500;28;20449;-79